sensor_id;sensor_type;location;lat;lon;timestamp;P1;durP1;ratioP1;P2;durP2;ratioP2
7657;SDS011;8462;53.156;8.220;2022-08-19T00:01:26;35.53;;;15.57;;
7657;SDS011;8462;53.156;8.220;2022-08-19T00:03:54;33.30;;;16.43;;
7657;SDS011;8462;53.156;8.220;2022-08-19T00:06:23;38.70;;;20.07;;
7657;SDS011;8462;53.156;8.220;2022-08-19T00:08:49;37.63;;;18.13;;
7657;SDS011;8462;53.156;8.220;2022-08-19T00:11:17;49.93;;;23.73;;
7657;SDS011;8462;53.156;8.220;2022-08-19T00:13:45;51.77;;;24.00;;
7657;SDS011;8462;53.156;8.220;2022-08-19T00:16:13;34.40;;;17.30;;
7657;SDS011;8462;53.156;8.220;2022-08-19T00:18:40;29.30;;;14.87;;
7657;SDS011;8462;53.156;8.220;2022-08-19T00:21:07;25.43;;;12.90;;
7657;SDS011;8462;53.156;8.220;2022-08-19T00:23:36;24.77;;;13.23;;
7657;SDS011;8462;53.156;8.220;2022-08-19T00:26:03;25.13;;;12.73;;
7657;SDS011;8462;53.156;8.220;2022-08-19T00:28:31;20.13;;;11.70;;
7657;SDS011;8462;53.156;8.220;2022-08-19T00:31:01;14.67;;;9.83;;
7657;SDS011;8462;53.156;8.220;2022-08-19T00:33:29;16.87;;;9.27;;
7657;SDS011;8462;53.156;8.220;2022-08-19T00:35:57;17.57;;;9.60;;
7657;SDS011;8462;53.156;8.220;2022-08-19T00:38:24;17.87;;;9.23;;
7657;SDS011;8462;53.156;8.220;2022-08-19T00:40:53;15.90;;;9.10;;
7657;SDS011;8462;53.156;8.220;2022-08-19T00:43:20;18.03;;;9.20;;
7657;SDS011;8462;53.156;8.220;2022-08-19T00:45:49;18.70;;;10.33;;
7657;SDS011;8462;53.156;8.220;2022-08-19T00:48:17;21.60;;;11.60;;
7657;SDS011;8462;53.156;8.220;2022-08-19T00:50:45;29.80;;;14.27;;
7657;SDS011;8462;53.156;8.220;2022-08-19T00:53:21;37.43;;;19.07;;
7657;SDS011;8462;53.156;8.220;2022-08-19T00:55:53;55.97;;;26.57;;
7657;SDS011;8462;53.156;8.220;2022-08-19T00:58:27;68.13;;;30.57;;
7657;SDS011;8462;53.156;8.220;2022-08-19T01:00:58;67.40;;;31.07;;
7657;SDS011;8462;53.156;8.220;2022-08-19T01:03:25;72.90;;;34.03;;
7657;SDS011;8462;53.156;8.220;2022-08-19T01:05:52;96.60;;;39.70;;
7657;SDS011;8462;53.156;8.220;2022-08-19T01:08:21;155.40;;;58.00;;
7657;SDS011;8462;53.156;8.220;2022-08-19T01:10:49;265.40;;;96.80;;
7657;SDS011;8462;53.156;8.220;2022-08-19T01:13:20;359.67;;;123.57;;
7657;SDS011;8462;53.156;8.220;2022-08-19T01:15:51;451.00;;;156.60;;
7657;SDS011;8462;53.156;8.220;2022-08-19T01:18:21;472.50;;;165.07;;
7657;SDS011;8462;53.156;8.220;2022-08-19T01:20:49;384.97;;;118.50;;
7657;SDS011;8462;53.156;8.220;2022-08-19T01:23:19;266.77;;;90.10;;
7657;SDS011;8462;53.156;8.220;2022-08-19T01:25:47;255.30;;;81.50;;
7657;SDS011;8462;53.156;8.220;2022-08-19T01:28:16;213.50;;;73.43;;
7657;SDS011;8462;53.156;8.220;2022-08-19T01:30:45;140.93;;;48.90;;
7657;SDS011;8462;53.156;8.220;2022-08-19T01:33:12;114.33;;;44.33;;
7657;SDS011;8462;53.156;8.220;2022-08-19T01:35:40;99.67;;;36.37;;
7657;SDS011;8462;53.156;8.220;2022-08-19T01:38:08;77.30;;;30.17;;
7657;SDS011;8462;53.156;8.220;2022-08-19T01:40:39;59.13;;;25.30;;
7657;SDS011;8462;53.156;8.220;2022-08-19T01:43:07;52.17;;;22.17;;
7657;SDS011;8462;53.156;8.220;2022-08-19T01:45:34;55.10;;;22.33;;
7657;SDS011;8462;53.156;8.220;2022-08-19T01:48:02;39.30;;;17.33;;
7657;SDS011;8462;53.156;8.220;2022-08-19T01:50:30;25.87;;;12.90;;
7657;SDS011;8462;53.156;8.220;2022-08-19T01:52:58;28.77;;;12.47;;
7657;SDS011;8462;53.156;8.220;2022-08-19T01:55:26;26.23;;;12.53;;
7657;SDS011;8462;53.156;8.220;2022-08-19T01:57:55;23.37;;;11.73;;
7657;SDS011;8462;53.156;8.220;2022-08-19T02:00:25;18.37;;;10.13;;
7657;SDS011;8462;53.156;8.220;2022-08-19T02:02:54;17.50;;;9.40;;
7657;SDS011;8462;53.156;8.220;2022-08-19T02:05:21;21.90;;;11.47;;
7657;SDS011;8462;53.156;8.220;2022-08-19T02:07:49;18.03;;;10.10;;
7657;SDS011;8462;53.156;8.220;2022-08-19T02:10:16;16.83;;;9.23;;
7657;SDS011;8462;53.156;8.220;2022-08-19T02:12:46;16.33;;;9.83;;
7657;SDS011;8462;53.156;8.220;2022-08-19T02:15:16;14.13;;;8.43;;
7657;SDS011;8462;53.156;8.220;2022-08-19T02:17:44;16.23;;;7.90;;
7657;SDS011;8462;53.156;8.220;2022-08-19T02:20:11;16.63;;;8.40;;
7657;SDS011;8462;53.156;8.220;2022-08-19T02:22:39;16.53;;;8.10;;
7657;SDS011;8462;53.156;8.220;2022-08-19T02:25:08;14.87;;;8.33;;
7657;SDS011;8462;53.156;8.220;2022-08-19T02:27:35;17.33;;;8.40;;
7657;SDS011;8462;53.156;8.220;2022-08-19T02:30:02;27.63;;;11.87;;
7657;SDS011;8462;53.156;8.220;2022-08-19T02:32:31;31.77;;;12.23;;
7657;SDS011;8462;53.156;8.220;2022-08-19T02:34:58;29.37;;;13.10;;
7657;SDS011;8462;53.156;8.220;2022-08-19T02:37:25;31.17;;;11.43;;
7657;SDS011;8462;53.156;8.220;2022-08-19T02:40:10;18.10;;;9.70;;
7657;SDS011;8462;53.156;8.220;2022-08-19T02:42:37;15.50;;;8.20;;
7657;SDS011;8462;53.156;8.220;2022-08-19T02:45:06;11.13;;;6.10;;
7657;SDS011;8462;53.156;8.220;2022-08-19T02:47:35;9.17;;;6.37;;
7657;SDS011;8462;53.156;8.220;2022-08-19T02:50:02;9.87;;;5.70;;
7657;SDS011;8462;53.156;8.220;2022-08-19T02:52:31;7.87;;;5.33;;
7657;SDS011;8462;53.156;8.220;2022-08-19T02:54:58;9.77;;;5.53;;
7657;SDS011;8462;53.156;8.220;2022-08-19T02:57:26;8.33;;;5.77;;
7657;SDS011;8462;53.156;8.220;2022-08-19T02:59:53;10.70;;;5.30;;
7657;SDS011;8462;53.156;8.220;2022-08-19T03:02:20;9.17;;;5.43;;
7657;SDS011;8462;53.156;8.220;2022-08-19T03:04:48;8.50;;;5.30;;
7657;SDS011;8462;53.156;8.220;2022-08-19T03:07:16;8.20;;;5.40;;
7657;SDS011;8462;53.156;8.220;2022-08-19T03:09:44;8.53;;;5.93;;
7657;SDS011;8462;53.156;8.220;2022-08-19T03:12:11;8.80;;;5.30;;
7657;SDS011;8462;53.156;8.220;2022-08-19T03:14:38;8.83;;;5.87;;
7657;SDS011;8462;53.156;8.220;2022-08-19T03:17:05;8.37;;;5.80;;
7657;SDS011;8462;53.156;8.220;2022-08-19T03:19:33;8.40;;;5.07;;
7657;SDS011;8462;53.156;8.220;2022-08-19T03:22:01;6.63;;;4.63;;
7657;SDS011;8462;53.156;8.220;2022-08-19T03:24:30;8.13;;;5.57;;
7657;SDS011;8462;53.156;8.220;2022-08-19T03:26:57;7.60;;;5.07;;
7657;SDS011;8462;53.156;8.220;2022-08-19T03:29:24;7.93;;;5.20;;
7657;SDS011;8462;53.156;8.220;2022-08-19T03:31:52;12.43;;;5.77;;
7657;SDS011;8462;53.156;8.220;2022-08-19T03:34:20;7.73;;;4.63;;
7657;SDS011;8462;53.156;8.220;2022-08-19T03:36:53;8.87;;;4.50;;
7657;SDS011;8462;53.156;8.220;2022-08-19T03:39:26;8.07;;;4.63;;
7657;SDS011;8462;53.156;8.220;2022-08-19T03:41:54;6.73;;;4.80;;
7657;SDS011;8462;53.156;8.220;2022-08-19T03:44:25;7.63;;;4.80;;
7657;SDS011;8462;53.156;8.220;2022-08-19T03:46:53;6.43;;;4.23;;
7657;SDS011;8462;53.156;8.220;2022-08-19T03:49:22;7.17;;;4.83;;
7657;SDS011;8462;53.156;8.220;2022-08-19T03:51:50;6.70;;;4.30;;
7657;SDS011;8462;53.156;8.220;2022-08-19T03:54:18;8.37;;;4.87;;
7657;SDS011;8462;53.156;8.220;2022-08-19T03:56:54;7.07;;;4.70;;
7657;SDS011;8462;53.156;8.220;2022-08-19T03:59:24;7.23;;;4.50;;
7657;SDS011;8462;53.156;8.220;2022-08-19T04:01:58;6.43;;;4.10;;
7657;SDS011;8462;53.156;8.220;2022-08-19T04:04:26;8.50;;;5.10;;
7657;SDS011;8462;53.156;8.220;2022-08-19T04:06:56;6.60;;;4.77;;
7657;SDS011;8462;53.156;8.220;2022-08-19T04:09:33;6.67;;;4.67;;
7657;SDS011;8462;53.156;8.220;2022-08-19T04:12:06;7.57;;;4.83;;
7657;SDS011;8462;53.156;8.220;2022-08-19T04:14:37;6.77;;;4.37;;
7657;SDS011;8462;53.156;8.220;2022-08-19T04:17:05;6.83;;;4.97;;
7657;SDS011;8462;53.156;8.220;2022-08-19T04:19:32;6.37;;;4.50;;
7657;SDS011;8462;53.156;8.220;2022-08-19T04:22:00;6.40;;;4.53;;
7657;SDS011;8462;53.156;8.220;2022-08-19T04:24:36;8.53;;;4.90;;
7657;SDS011;8462;53.156;8.220;2022-08-19T04:27:06;6.03;;;4.57;;
7657;SDS011;8462;53.156;8.220;2022-08-19T04:29:33;8.53;;;4.87;;
7657;SDS011;8462;53.156;8.220;2022-08-19T04:32:01;7.10;;;4.70;;
7657;SDS011;8462;53.156;8.220;2022-08-19T04:34:30;7.03;;;4.30;;
7657;SDS011;8462;53.156;8.220;2022-08-19T04:36:57;8.03;;;4.50;;
7657;SDS011;8462;53.156;8.220;2022-08-19T04:39:25;7.37;;;4.63;;
7657;SDS011;8462;53.156;8.220;2022-08-19T04:42:17;6.87;;;4.93;;
7657;SDS011;8462;53.156;8.220;2022-08-19T04:45:03;6.77;;;4.60;;
7657;SDS011;8462;53.156;8.220;2022-08-19T04:47:41;6.90;;;4.47;;
7657;SDS011;8462;53.156;8.220;2022-08-19T04:50:10;7.90;;;4.43;;
7657;SDS011;8462;53.156;8.220;2022-08-19T04:52:40;6.90;;;4.73;;
7657;SDS011;8462;53.156;8.220;2022-08-19T04:55:08;6.50;;;5.20;;
7657;SDS011;8462;53.156;8.220;2022-08-19T04:57:41;6.87;;;5.03;;
7657;SDS011;8462;53.156;8.220;2022-08-19T05:00:08;7.80;;;5.23;;
7657;SDS011;8462;53.156;8.220;2022-08-19T05:02:36;6.70;;;4.70;;
7657;SDS011;8462;53.156;8.220;2022-08-19T05:05:07;5.80;;;4.43;;
7657;SDS011;8462;53.156;8.220;2022-08-19T05:07:36;5.90;;;4.50;;
7657;SDS011;8462;53.156;8.220;2022-08-19T05:10:03;7.43;;;4.63;;
7657;SDS011;8462;53.156;8.220;2022-08-19T05:12:33;6.57;;;4.50;;
7657;SDS011;8462;53.156;8.220;2022-08-19T05:15:02;6.30;;;4.33;;
7657;SDS011;8462;53.156;8.220;2022-08-19T05:17:38;6.87;;;4.57;;
7657;SDS011;8462;53.156;8.220;2022-08-19T05:20:26;8.80;;;4.47;;
7657;SDS011;8462;53.156;8.220;2022-08-19T05:23:11;6.70;;;4.90;;
7657;SDS011;8462;53.156;8.220;2022-08-19T05:25:41;8.43;;;5.20;;
7657;SDS011;8462;53.156;8.220;2022-08-19T05:28:18;8.97;;;5.40;;
7657;SDS011;8462;53.156;8.220;2022-08-19T05:30:52;8.63;;;5.70;;
7657;SDS011;8462;53.156;8.220;2022-08-19T05:33:23;12.70;;;6.33;;
7657;SDS011;8462;53.156;8.220;2022-08-19T05:35:58;10.90;;;6.10;;
7657;SDS011;8462;53.156;8.220;2022-08-19T05:38:27;8.87;;;5.53;;
7657;SDS011;8462;53.156;8.220;2022-08-19T05:40:55;11.30;;;6.83;;
7657;SDS011;8462;53.156;8.220;2022-08-19T05:43:23;12.73;;;7.67;;
7657;SDS011;8462;53.156;8.220;2022-08-19T05:45:55;12.97;;;7.63;;
7657;SDS011;8462;53.156;8.220;2022-08-19T05:48:22;14.13;;;7.90;;
7657;SDS011;8462;53.156;8.220;2022-08-19T05:50:49;17.47;;;9.33;;
7657;SDS011;8462;53.156;8.220;2022-08-19T05:53:16;26.63;;;11.47;;
7657;SDS011;8462;53.156;8.220;2022-08-19T05:55:43;32.65;;;13.75;;
7657;SDS011;8462;53.156;8.220;2022-08-19T05:58:10;39.50;;;16.40;;
7657;SDS011;8462;53.156;8.220;2022-08-19T06:00:38;41.72;;;16.80;;
7657;SDS011;8462;53.156;8.220;2022-08-19T06:03:06;48.47;;;19.85;;
7657;SDS011;8462;53.156;8.220;2022-08-19T06:05:35;40.60;;;17.58;;
7657;SDS011;8462;53.156;8.220;2022-08-19T06:08:04;41.22;;;18.85;;
7657;SDS011;8462;53.156;8.220;2022-08-19T06:10:32;35.75;;;16.48;;
7657;SDS011;8462;53.156;8.220;2022-08-19T06:13:03;29.75;;;13.55;;
7657;SDS011;8462;53.156;8.220;2022-08-19T06:15:31;19.77;;;9.38;;
7657;SDS011;8462;53.156;8.220;2022-08-19T06:17:58;13.43;;;6.60;;
7657;SDS011;8462;53.156;8.220;2022-08-19T06:20:27;8.55;;;5.35;;
7657;SDS011;8462;53.156;8.220;2022-08-19T06:22:54;7.18;;;4.30;;
7657;SDS011;8462;53.156;8.220;2022-08-19T06:25:21;8.55;;;4.03;;
7657;SDS011;8462;53.156;8.220;2022-08-19T06:27:48;6.45;;;4.40;;
7657;SDS011;8462;53.156;8.220;2022-08-19T06:30:15;5.28;;;3.38;;
7657;SDS011;8462;53.156;8.220;2022-08-19T06:32:42;3.67;;;2.60;;
7657;SDS011;8462;53.156;8.220;2022-08-19T06:35:09;4.47;;;3.35;;
7657;SDS011;8462;53.156;8.220;2022-08-19T06:37:37;4.38;;;3.33;;
7657;SDS011;8462;53.156;8.220;2022-08-19T06:40:05;4.45;;;2.75;;
7657;SDS011;8462;53.156;8.220;2022-08-19T06:42:33;5.53;;;3.20;;
7657;SDS011;8462;53.156;8.220;2022-08-19T06:45:02;5.45;;;2.60;;
7657;SDS011;8462;53.156;8.220;2022-08-19T06:47:29;4.63;;;2.53;;
7657;SDS011;8462;53.156;8.220;2022-08-19T06:49:57;3.80;;;2.17;;
7657;SDS011;8462;53.156;8.220;2022-08-19T06:52:27;2.53;;;1.95;;
7657;SDS011;8462;53.156;8.220;2022-08-19T06:54:55;3.20;;;2.10;;
7657;SDS011;8462;53.156;8.220;2022-08-19T06:57:23;2.72;;;2.17;;
7657;SDS011;8462;53.156;8.220;2022-08-19T06:59:50;2.25;;;1.92;;
7657;SDS011;8462;53.156;8.220;2022-08-19T07:02:18;2.15;;;1.65;;
7657;SDS011;8462;53.156;8.220;2022-08-19T07:04:45;2.85;;;1.95;;
7657;SDS011;8462;53.156;8.220;2022-08-19T07:07:13;2.15;;;1.63;;
7657;SDS011;8462;53.156;8.220;2022-08-19T07:09:41;2.38;;;1.63;;
7657;SDS011;8462;53.156;8.220;2022-08-19T07:12:11;1.60;;;1.50;;
7657;SDS011;8462;53.156;8.220;2022-08-19T07:14:40;2.30;;;1.77;;
7657;SDS011;8462;53.156;8.220;2022-08-19T07:17:11;6.78;;;2.38;;
7657;SDS011;8462;53.156;8.220;2022-08-19T07:19:39;2.17;;;1.70;;
7657;SDS011;8462;53.156;8.220;2022-08-19T07:22:07;3.65;;;1.75;;
7657;SDS011;8462;53.156;8.220;2022-08-19T07:24:36;2.30;;;1.88;;
7657;SDS011;8462;53.156;8.220;2022-08-19T07:27:05;4.70;;;1.83;;
7657;SDS011;8462;53.156;8.220;2022-08-19T07:29:36;2.00;;;1.60;;
7657;SDS011;8462;53.156;8.220;2022-08-19T07:32:03;3.00;;;1.70;;
7657;SDS011;8462;53.156;8.220;2022-08-19T07:34:31;2.20;;;1.50;;
7657;SDS011;8462;53.156;8.220;2022-08-19T07:37:02;3.28;;;1.98;;
7657;SDS011;8462;53.156;8.220;2022-08-19T07:39:31;2.42;;;1.73;;
7657;SDS011;8462;53.156;8.220;2022-08-19T07:42:00;2.92;;;1.60;;
7657;SDS011;8462;53.156;8.220;2022-08-19T07:44:31;2.40;;;2.17;;
7657;SDS011;8462;53.156;8.220;2022-08-19T07:47:00;7.15;;;2.33;;
7657;SDS011;8462;53.156;8.220;2022-08-19T07:49:29;3.17;;;1.70;;
7657;SDS011;8462;53.156;8.220;2022-08-19T07:51:57;2.00;;;1.80;;
7657;SDS011;8462;53.156;8.220;2022-08-19T07:54:27;4.23;;;2.63;;
7657;SDS011;8462;53.156;8.220;2022-08-19T07:56:56;3.07;;;1.97;;
7657;SDS011;8462;53.156;8.220;2022-08-19T07:59:24;2.07;;;1.77;;
7657;SDS011;8462;53.156;8.220;2022-08-19T08:01:51;3.77;;;1.80;;
7657;SDS011;8462;53.156;8.220;2022-08-19T08:04:20;2.27;;;1.90;;
7657;SDS011;8462;53.156;8.220;2022-08-19T08:07:07;2.23;;;1.60;;
7657;SDS011;8462;53.156;8.220;2022-08-19T08:09:52;3.33;;;1.80;;
7657;SDS011;8462;53.156;8.220;2022-08-19T08:12:20;4.47;;;2.00;;
7657;SDS011;8462;53.156;8.220;2022-08-19T08:14:50;3.17;;;1.63;;
7657;SDS011;8462;53.156;8.220;2022-08-19T08:17:19;3.13;;;1.70;;
7657;SDS011;8462;53.156;8.220;2022-08-19T08:19:50;3.27;;;2.13;;
7657;SDS011;8462;53.156;8.220;2022-08-19T08:22:18;2.37;;;2.07;;
7657;SDS011;8462;53.156;8.220;2022-08-19T08:25:03;1.77;;;1.57;;
7657;SDS011;8462;53.156;8.220;2022-08-19T08:27:34;5.43;;;2.60;;
7657;SDS011;8462;53.156;8.220;2022-08-19T08:30:05;4.23;;;1.77;;
7657;SDS011;8462;53.156;8.220;2022-08-19T08:32:34;3.40;;;2.10;;
7657;SDS011;8462;53.156;8.220;2022-08-19T08:35:04;3.53;;;1.87;;
7657;SDS011;8462;53.156;8.220;2022-08-19T08:37:31;3.20;;;2.67;;
7657;SDS011;8462;53.156;8.220;2022-08-19T08:40:01;2.70;;;2.30;;
7657;SDS011;8462;53.156;8.220;2022-08-19T08:43:00;3.90;;;2.40;;
7657;SDS011;8462;53.156;8.220;2022-08-19T08:45:32;3.27;;;2.23;;
7657;SDS011;8462;53.156;8.220;2022-08-19T08:48:03;5.63;;;2.00;;
7657;SDS011;8462;53.156;8.220;2022-08-19T08:50:39;2.87;;;2.13;;
7657;SDS011;8462;53.156;8.220;2022-08-19T08:53:19;5.17;;;2.93;;
7657;SDS011;8462;53.156;8.220;2022-08-19T08:55:47;2.73;;;1.93;;
7657;SDS011;8462;53.156;8.220;2022-08-19T08:58:25;2.87;;;1.93;;
7657;SDS011;8462;53.156;8.220;2022-08-19T09:00:57;3.10;;;2.20;;
7657;SDS011;8462;53.156;8.220;2022-08-19T09:03:25;2.47;;;2.17;;
7657;SDS011;8462;53.156;8.220;2022-08-19T09:06:03;2.20;;;1.80;;
7657;SDS011;8462;53.156;8.220;2022-08-19T09:09:04;2.07;;;1.87;;
7657;SDS011;8462;53.156;8.220;2022-08-19T09:11:44;2.50;;;2.00;;
7657;SDS011;8462;53.156;8.220;2022-08-19T09:14:32;2.40;;;2.03;;
7657;SDS011;8462;53.156;8.220;2022-08-19T09:20:08;4.60;;;2.03;;
7657;SDS011;8462;53.156;8.220;2022-08-19T09:22:51;4.53;;;2.53;;
7657;SDS011;8462;53.156;8.220;2022-08-19T09:25:18;2.57;;;2.00;;
7657;SDS011;8462;53.156;8.220;2022-08-19T09:27:48;2.92;;;2.22;;
7657;SDS011;8462;53.156;8.220;2022-08-19T09:30:20;3.35;;;2.17;;
7657;SDS011;8462;53.156;8.220;2022-08-19T09:33:00;3.28;;;1.92;;
7657;SDS011;8462;53.156;8.220;2022-08-19T09:35:28;3.42;;;2.20;;
7657;SDS011;8462;53.156;8.220;2022-08-19T09:38:02;2.80;;;2.40;;
7657;SDS011;8462;53.156;8.220;2022-08-19T09:40:29;2.40;;;2.20;;
7657;SDS011;8462;53.156;8.220;2022-08-19T09:42:59;3.47;;;2.20;;
7657;SDS011;8462;53.156;8.220;2022-08-19T09:45:32;2.28;;;2.08;;
7657;SDS011;8462;53.156;8.220;2022-08-19T09:48:00;2.78;;;2.30;;
7657;SDS011;8462;53.156;8.220;2022-08-19T09:50:27;2.15;;;1.88;;
7657;SDS011;8462;53.156;8.220;2022-08-19T09:53:11;1.70;;;1.60;;
7657;SDS011;8462;53.156;8.220;2022-08-19T09:55:43;2.85;;;1.58;;
7657;SDS011;8462;53.156;8.220;2022-08-19T09:58:10;2.13;;;1.63;;
7657;SDS011;8462;53.156;8.220;2022-08-19T10:00:37;2.05;;;1.63;;
7657;SDS011;8462;53.156;8.220;2022-08-19T10:03:04;1.67;;;1.52;;
7657;SDS011;8462;53.156;8.220;2022-08-19T10:05:31;2.47;;;1.65;;
7657;SDS011;8462;53.156;8.220;2022-08-19T10:08:20;4.97;;;1.65;;
7657;SDS011;8462;53.156;8.220;2022-08-19T10:10:56;1.67;;;1.58;;
7657;SDS011;8462;53.156;8.220;2022-08-19T10:13:24;3.25;;;1.90;;
7657;SDS011;8462;53.156;8.220;2022-08-19T10:15:54;1.50;;;1.40;;
7657;SDS011;8462;53.156;8.220;2022-08-19T10:18:24;2.95;;;1.67;;
7657;SDS011;8462;53.156;8.220;2022-08-19T10:21:02;2.80;;;1.60;;
7657;SDS011;8462;53.156;8.220;2022-08-19T10:23:35;2.42;;;1.42;;
7657;SDS011;8462;53.156;8.220;2022-08-19T10:26:02;3.33;;;1.27;;
7657;SDS011;8462;53.156;8.220;2022-08-19T10:28:31;2.42;;;1.23;;
7657;SDS011;8462;53.156;8.220;2022-08-19T10:31:03;2.03;;;1.40;;
7657;SDS011;8462;53.156;8.220;2022-08-19T10:33:31;1.65;;;1.50;;
7657;SDS011;8462;53.156;8.220;2022-08-19T10:36:00;2.53;;;2.33;;
7657;SDS011;8462;53.156;8.220;2022-08-19T10:38:36;2.05;;;1.55;;
7657;SDS011;8462;53.156;8.220;2022-08-19T10:41:13;2.00;;;1.80;;
7657;SDS011;8462;53.156;8.220;2022-08-19T10:43:41;2.13;;;1.50;;
7657;SDS011;8462;53.156;8.220;2022-08-19T10:46:11;1.70;;;1.35;;
7657;SDS011;8462;53.156;8.220;2022-08-19T10:48:39;2.33;;;1.50;;
7657;SDS011;8462;53.156;8.220;2022-08-19T10:51:07;3.33;;;1.58;;
7657;SDS011;8462;53.156;8.220;2022-08-19T10:53:53;3.95;;;1.40;;
7657;SDS011;8462;53.156;8.220;2022-08-19T10:56:21;1.45;;;1.35;;
7657;SDS011;8462;53.156;8.220;2022-08-19T10:59:06;2.50;;;2.20;;
7657;SDS011;8462;53.156;8.220;2022-08-19T11:01:33;2.78;;;1.60;;
7657;SDS011;8462;53.156;8.220;2022-08-19T11:04:01;1.92;;;1.42;;
7657;SDS011;8462;53.156;8.220;2022-08-19T11:06:31;2.05;;;1.30;;
7657;SDS011;8462;53.156;8.220;2022-08-19T11:08:59;3.22;;;1.52;;
7657;SDS011;8462;53.156;8.220;2022-08-19T11:11:26;2.72;;;1.52;;
7657;SDS011;8462;53.156;8.220;2022-08-19T11:13:54;1.73;;;1.50;;
7657;SDS011;8462;53.156;8.220;2022-08-19T11:16:22;1.70;;;1.60;;
7657;SDS011;8462;53.156;8.220;2022-08-19T11:18:52;2.47;;;1.70;;
7657;SDS011;8462;53.156;8.220;2022-08-19T11:21:24;4.75;;;1.73;;
7657;SDS011;8462;53.156;8.220;2022-08-19T11:23:54;1.85;;;1.40;;
7657;SDS011;8462;53.156;8.220;2022-08-19T11:26:24;2.10;;;1.20;;
7657;SDS011;8462;53.156;8.220;2022-08-19T11:28:51;4.18;;;1.33;;
7657;SDS011;8462;53.156;8.220;2022-08-19T11:31:20;3.28;;;2.15;;
7657;SDS011;8462;53.156;8.220;2022-08-19T11:33:50;3.92;;;1.58;;
7657;SDS011;8462;53.156;8.220;2022-08-19T11:36:17;2.72;;;1.60;;
7657;SDS011;8462;53.156;8.220;2022-08-19T11:38:46;2.75;;;1.30;;
7657;SDS011;8462;53.156;8.220;2022-08-19T11:41:16;2.85;;;1.70;;
7657;SDS011;8462;53.156;8.220;2022-08-19T11:43:48;2.92;;;1.80;;
7657;SDS011;8462;53.156;8.220;2022-08-19T11:46:17;2.33;;;1.50;;
7657;SDS011;8462;53.156;8.220;2022-08-19T11:48:44;1.63;;;1.40;;
7657;SDS011;8462;53.156;8.220;2022-08-19T11:51:12;2.42;;;1.50;;
7657;SDS011;8462;53.156;8.220;2022-08-19T11:53:41;1.50;;;1.40;;
7657;SDS011;8462;53.156;8.220;2022-08-19T11:56:08;2.13;;;1.90;;
7657;SDS011;8462;53.156;8.220;2022-08-19T11:58:37;2.90;;;1.60;;
7657;SDS011;8462;53.156;8.220;2022-08-19T12:01:08;3.25;;;1.83;;
7657;SDS011;8462;53.156;8.220;2022-08-19T12:03:36;4.95;;;1.77;;
7657;SDS011;8462;53.156;8.220;2022-08-19T12:06:04;2.35;;;1.42;;
7657;SDS011;8462;53.156;8.220;2022-08-19T12:08:31;3.05;;;1.40;;
7657;SDS011;8462;53.156;8.220;2022-08-19T12:10:58;2.97;;;1.45;;
7657;SDS011;8462;53.156;8.220;2022-08-19T12:13:26;1.52;;;1.42;;
7657;SDS011;8462;53.156;8.220;2022-08-19T12:15:54;2.15;;;1.60;;
7657;SDS011;8462;53.156;8.220;2022-08-19T12:18:22;1.50;;;1.40;;
7657;SDS011;8462;53.156;8.220;2022-08-19T12:20:50;2.70;;;1.63;;
7657;SDS011;8462;53.156;8.220;2022-08-19T12:23:19;2.10;;;1.40;;
7657;SDS011;8462;53.156;8.220;2022-08-19T12:25:47;1.70;;;1.60;;
7657;SDS011;8462;53.156;8.220;2022-08-19T12:28:16;1.50;;;1.40;;
7657;SDS011;8462;53.156;8.220;2022-08-19T12:30:44;2.10;;;1.55;;
7657;SDS011;8462;53.156;8.220;2022-08-19T12:33:11;2.25;;;1.73;;
7657;SDS011;8462;53.156;8.220;2022-08-19T12:35:41;1.85;;;1.48;;
7657;SDS011;8462;53.156;8.220;2022-08-19T12:38:09;1.70;;;1.60;;
7657;SDS011;8462;53.156;8.220;2022-08-19T12:40:36;3.60;;;1.92;;
7657;SDS011;8462;53.156;8.220;2022-08-19T12:43:05;2.13;;;1.55;;
7657;SDS011;8462;53.156;8.220;2022-08-19T12:45:32;1.65;;;1.50;;
7657;SDS011;8462;53.156;8.220;2022-08-19T12:47:59;2.28;;;1.63;;
7657;SDS011;8462;53.156;8.220;2022-08-19T12:50:26;2.33;;;1.40;;
7657;SDS011;8462;53.156;8.220;2022-08-19T12:52:54;1.92;;;1.60;;
7657;SDS011;8462;53.156;8.220;2022-08-19T12:55:23;2.15;;;1.50;;
7657;SDS011;8462;53.156;8.220;2022-08-19T12:57:50;1.85;;;1.52;;
7657;SDS011;8462;53.156;8.220;2022-08-19T13:00:18;2.58;;;1.67;;
7657;SDS011;8462;53.156;8.220;2022-08-19T13:02:48;1.60;;;1.50;;
7657;SDS011;8462;53.156;8.220;2022-08-19T13:05:17;2.10;;;1.80;;
7657;SDS011;8462;53.156;8.220;2022-08-19T13:07:47;3.47;;;2.00;;
7657;SDS011;8462;53.156;8.220;2022-08-19T13:10:18;2.40;;;1.67;;
7657;SDS011;8462;53.156;8.220;2022-08-19T13:12:47;3.63;;;1.60;;
7657;SDS011;8462;53.156;8.220;2022-08-19T13:15:16;1.75;;;1.65;;
7657;SDS011;8462;53.156;8.220;2022-08-19T13:17:45;3.15;;;1.92;;
7657;SDS011;8462;53.156;8.220;2022-08-19T13:20:13;1.60;;;1.50;;
7657;SDS011;8462;53.156;8.220;2022-08-19T13:22:41;3.10;;;1.75;;
7657;SDS011;8462;53.156;8.220;2022-08-19T13:25:10;2.42;;;2.03;;
7657;SDS011;8462;53.156;8.220;2022-08-19T13:27:40;3.47;;;1.80;;
7657;SDS011;8462;53.156;8.220;2022-08-19T13:30:08;1.88;;;1.58;;
7657;SDS011;8462;53.156;8.220;2022-08-19T13:32:54;1.98;;;1.77;;
7657;SDS011;8462;53.156;8.220;2022-08-19T13:35:37;2.25;;;1.60;;
7657;SDS011;8462;53.156;8.220;2022-08-19T13:38:04;2.25;;;1.60;;
7657;SDS011;8462;53.156;8.220;2022-08-19T13:40:32;2.70;;;1.40;;
7657;SDS011;8462;53.156;8.220;2022-08-19T13:43:01;3.25;;;1.60;;
7657;SDS011;8462;53.156;8.220;2022-08-19T13:45:31;2.42;;;1.52;;
7657;SDS011;8462;53.156;8.220;2022-08-19T13:47:59;1.95;;;1.80;;
7657;SDS011;8462;53.156;8.220;2022-08-19T13:50:30;2.65;;;1.80;;
7657;SDS011;8462;53.156;8.220;2022-08-19T13:52:57;2.63;;;1.65;;
7657;SDS011;8462;53.156;8.220;2022-08-19T13:55:24;2.53;;;1.30;;
7657;SDS011;8462;53.156;8.220;2022-08-19T13:57:52;1.60;;;1.50;;
7657;SDS011;8462;53.156;8.220;2022-08-19T14:00:21;2.55;;;1.55;;
7657;SDS011;8462;53.156;8.220;2022-08-19T14:02:52;1.73;;;1.63;;
7657;SDS011;8462;53.156;8.220;2022-08-19T14:05:21;1.95;;;1.75;;
7657;SDS011;8462;53.156;8.220;2022-08-19T14:07:48;1.88;;;1.45;;
7657;SDS011;8462;53.156;8.220;2022-08-19T14:10:16;2.10;;;1.58;;
7657;SDS011;8462;53.156;8.220;2022-08-19T14:12:44;2.30;;;1.77;;
7657;SDS011;8462;53.156;8.220;2022-08-19T14:15:11;1.45;;;1.35;;
7657;SDS011;8462;53.156;8.220;2022-08-19T14:17:41;3.08;;;1.95;;
7657;SDS011;8462;53.156;8.220;2022-08-19T14:20:10;2.45;;;1.92;;
7657;SDS011;8462;53.156;8.220;2022-08-19T14:22:40;1.95;;;1.80;;
7657;SDS011;8462;53.156;8.220;2022-08-19T14:25:10;2.13;;;1.92;;
7657;SDS011;8462;53.156;8.220;2022-08-19T14:27:42;2.97;;;2.08;;
7657;SDS011;8462;53.156;8.220;2022-08-19T14:30:11;2.28;;;2.08;;
7657;SDS011;8462;53.156;8.220;2022-08-19T14:32:41;4.05;;;2.28;;
7657;SDS011;8462;53.156;8.220;2022-08-19T14:35:10;1.95;;;1.75;;
7657;SDS011;8462;53.156;8.220;2022-08-19T14:37:39;2.42;;;1.60;;
7657;SDS011;8462;53.156;8.220;2022-08-19T14:40:07;3.00;;;1.63;;
7657;SDS011;8462;53.156;8.220;2022-08-19T14:42:36;2.67;;;2.47;;
7657;SDS011;8462;53.156;8.220;2022-08-19T14:45:04;2.13;;;1.98;;
7657;SDS011;8462;53.156;8.220;2022-08-19T14:47:31;2.10;;;2.00;;
7657;SDS011;8462;53.156;8.220;2022-08-19T14:50:00;1.70;;;1.60;;
7657;SDS011;8462;53.156;8.220;2022-08-19T14:52:27;1.88;;;1.60;;
7657;SDS011;8462;53.156;8.220;2022-08-19T14:54:54;2.55;;;2.35;;
7657;SDS011;8462;53.156;8.220;2022-08-19T14:57:21;3.40;;;1.95;;
7657;SDS011;8462;53.156;8.220;2022-08-19T14:59:48;2.70;;;2.47;;
7657;SDS011;8462;53.156;8.220;2022-08-19T15:02:15;2.50;;;1.90;;
7657;SDS011;8462;53.156;8.220;2022-08-19T15:04:42;2.40;;;2.03;;
7657;SDS011;8462;53.156;8.220;2022-08-19T15:07:11;1.67;;;1.52;;
7657;SDS011;8462;53.156;8.220;2022-08-19T15:09:38;2.67;;;1.70;;
7657;SDS011;8462;53.156;8.220;2022-08-19T15:12:05;2.25;;;2.05;;
7657;SDS011;8462;53.156;8.220;2022-08-19T15:14:32;2.63;;;1.90;;
7657;SDS011;8462;53.156;8.220;2022-08-19T15:17:03;2.00;;;1.80;;
7657;SDS011;8462;53.156;8.220;2022-08-19T15:19:31;2.75;;;2.53;;
7657;SDS011;8462;53.156;8.220;2022-08-19T15:22:01;2.75;;;1.90;;
7657;SDS011;8462;53.156;8.220;2022-08-19T15:24:29;2.30;;;1.92;;
7657;SDS011;8462;53.156;8.220;2022-08-19T15:26:57;3.60;;;2.70;;
7657;SDS011;8462;53.156;8.220;2022-08-19T15:29:24;2.50;;;2.25;;